Shenandoah National Park, VA

4:21 PM EDT op 29 augustus 2014 (GMT -0400)
Lord Willing Dr. | Change Station
CLOSE
Current Station
Persoonlijk weerstation
Location: Culpeper, VA
Geometrische hoogte: 499 ft
Nabije weerstations

Hoogte 499 ft 38.54 °N, 77.94 °W | Updated 11 seconds ago

Helder
Helder
80.8 °F
Voelt als 82 °F
N
0.0
Wind Variabel Wind van ZZW
Gusts 1.0 mijl/u

Vandaag
Hoog -- | Laag -- °F
--% Kans op neerslag
Gisteren
Hoog -- | Laag -- °F
Precip. -- inches
6:38 AM 7:46 PM
Wassende halvemaan, 16% visible
Druk 30.14 inches
Zicht 10.0 mijlen
Wolken Helder
Warmteindex 82 °F
Dauwpunt 61 °F
Vochtigheid 51%
Neerslag 0.00 inches
Dikte sneeuw Niet beschikbaar.
UV 5 van de 12
Pollen 9.70 van de 12
Luchtkwaliteit Niet beschikbaar.
Flu Activity Niet beschikbaar.
METAR KHWY 292015Z AUTO 17004KT 10SM CLR 28/19 A3014 RMK AO2 T02770185

More Conditions Fewer Conditions

Druk 30.14 inches
Zicht 10.0 mijlen
Wolken Helder
Warmteindex 82 °F
Dauwpunt 61 °F
Vochtigheid 51%
Neerslag 0.00 inches
Dikte sneeuw Niet beschikbaar.
UV 5 van de 12
Pollen 9.70 van de 12
Luchtkwaliteit Niet beschikbaar.
Flu Activity Niet beschikbaar.
METAR KHWY 292015Z AUTO 17004KT 10SM CLR 28/19 A3014 RMK AO2 T02770185

More Conditions Fewer Conditions

10-Day Weather Forecast

Almanac

Astronomie

Aug. 29, 2014 Opkomst Ondergang
Werkelijke tijd 6:38 AM EDT 7:46 PM EDT
Burgerlijke schemering 6:11 AM EDT 8:13 PM EDT
Nautische schemering 5:38 AM EDT 8:45 PM EDT
Astronomische schemering 5:04 AM EDT 9:19 PM EDT
Maan 10:22 AM EDT 9:46 PM EDT
Golflengte van het zichtbare licht 14h 02m
Daglengte
13h 07m
Tomorrow will be 2m 22s shorter.
Wassende halvemaan, 16% of the Moon is Illuminated
Vandaag
Wassende halvemaan
sep 2
Eerste kwartier
sep 8
Volle maan
sep 15
Laatste kwartier
sep 24
Nieuw

Extremen vandaag

State Highs State Lows

Community

WunderPhotos

Upload Photos

1,748,337 foto’s ge-upload!

WunderBlogs® & News

By Dr. Jeff Masters
Director of Meteorology, Weather Underground
By Kari Strenfel
Meteorologist, Weather Underground
By Christopher C. Burt
Weather Historian, Weather Underground
August 29, 2014
August 29, 2014
August 29, 2014

Nearby

Dikte sneeuw

Station Depth Geometrische hoogte
Er is geen verse sneeuw gerapporteerd.

Aardbevingen

Stad Distance Mag. Time & Date
No recent earthquake activity has been reported nearby.
Minimum magnitude displayed is 2.5.

Watertemperatuur langs de kust

Plaats Temperatuur
Geen meldingen van stations

Nabije weerstations